Time;durP1;ratioP1;P1;durP2;ratioP2;P2;SDS_P1;SDS_P2;PMS_P1;PMS_P2;Temp;Humidity;BMP_temperature;BMP_pressure;BME280_temperature;BME280_humidity;BME280_pressure;Samples;Min_cycle;Max_cycle;Signal;HPM_P1;HPM_P2
2023/01/21 00:02:16;;;;;;;15.70;8.63;;;;;;;7.85;48.44;102166.44;5014572;28;20045;-61
2023/01/21 00:04:42;;;;;;;18.60;7.85;;;;;;;7.85;48.41;102174.47;5014132;28;20049;-62
2023/01/21 00:07:08;;;;;;;14.63;7.47;;;;;;;7.85;47.29;102174.47;5015307;28;20168;-62
2023/01/21 00:09:33;;;;;;;17.98;8.07;;;;;;;7.83;47.43;102181.69;5015742;28;20045;-61
2023/01/21 00:12:01;;;;;;;19.33;8.88;;;;;;;7.83;47.28;102189.69;5015744;28;20041;-61
2023/01/21 00:14:28;;;;;;;19.95;7.28;;;;;;;7.81;48.46;102187.09;5015294;28;20529;-61
2023/01/21 00:16:53;;;;;;;16.58;7.68;;;;;;;7.78;48.37;102184.59;5014058;28;20053;-61
2023/01/21 00:19:18;;;;;;;17.60;7.63;;;;;;;7.81;48.22;102191.56;5013983;28;20042;-61
2023/01/21 00:21:44;;;;;;;18.80;8.55;;;;;;;7.79;48.12;102201.47;5015288;28;20086;-61
2023/01/21 00:24:09;;;;;;;20.90;8.32;;;;;;;7.80;48.07;102208.50;5014622;28;20034;-61
2023/01/21 00:26:35;;;;;;;18.50;8.18;;;;;;;7.79;48.54;102212.13;5015038;28;20113;-61
2023/01/21 00:29:00;;;;;;;25.05;8.70;;;;;;;7.74;48.29;102215.00;5014907;28;20506;-61
2023/01/21 00:31:26;;;;;;;13.27;6.75;;;;;;;7.79;47.59;102217.47;4996290;28;20037;-61
2023/01/21 00:33:52;;;;;;;17.73;7.75;;;;;;;7.77;47.43;102225.53;5014956;28;20494;-60
2023/01/21 00:36:17;;;;;;;24.25;9.43;;;;;;;7.77;48.63;102230.00;5015675;28;20041;-61
2023/01/21 00:38:43;;;;;;;18.98;9.13;;;;;;;7.76;48.05;102234.47;5018406;28;20041;-61
2023/01/21 00:41:12;;;;;;;18.45;8.38;;;;;;;7.74;47.90;102240.81;5015016;28;20496;-61
2023/01/21 00:43:38;;;;;;;18.65;9.57;;;;;;;7.75;48.06;102239.88;5014671;28;20505;-61
2023/01/21 00:46:04;;;;;;;23.55;9.02;;;;;;;7.72;48.01;102245.38;4997245;28;20038;-61
2023/01/21 00:48:30;;;;;;;23.67;9.40;;;;;;;7.73;47.53;102253.31;5014698;28;20057;-61
2023/01/21 00:50:59;;;;;;;17.33;7.95;;;;;;;7.72;47.91;102253.38;5013718;28;20032;-61
2023/01/21 00:53:25;;;;;;;24.40;9.05;;;;;;;7.69;48.13;102264.19;5014751;28;20125;-60
2023/01/21 00:55:50;;;;;;;18.88;8.60;;;;;;;7.69;47.89;102269.53;5013244;28;20045;-60
2023/01/21 00:58:16;;;;;;;18.98;8.77;;;;;;;7.66;47.56;102270.53;5014625;28;20168;-62
2023/01/21 01:00:41;;;;;;;19.55;8.45;;;;;;;7.64;47.61;102267.09;5013402;28;20037;-60
2023/01/21 01:03:07;;;;;;;26.13;7.90;;;;;;;7.58;46.98;102262.91;5014687;28;20423;-61
2023/01/21 01:05:32;;;;;;;22.70;8.68;;;;;;;7.61;48.06;102270.78;5014291;28;20045;-61
2023/01/21 01:07:58;;;;;;;19.02;9.18;;;;;;;7.61;47.43;102278.78;5014384;28;20077;-61
2023/01/21 01:10:23;;;;;;;22.27;8.85;;;;;;;7.53;48.04;102269.41;4996666;28;20042;-61
2023/01/21 01:12:48;;;;;;;25.25;9.27;;;;;;;7.58;47.77;102278.03;5013068;28;20504;-60
2023/01/21 01:15:14;;;;;;;18.67;8.20;;;;;;;7.56;47.38;102280.81;5013326;28;20026;-60
2023/01/21 01:17:41;;;;;;;21.70;9.85;;;;;;;7.55;47.21;102287.06;5013997;28;20048;-61
2023/01/21 01:20:07;;;;;;;23.50;10.20;;;;;;;7.54;47.46;102292.44;5013930;28;20042;-60
2023/01/21 01:22:33;;;;;;;22.95;8.18;;;;;;;7.52;48.10;102300.53;5014116;28;20046;-61
2023/01/21 01:24:58;;;;;;;24.10;8.55;;;;;;;7.53;48.21;102302.28;5014301;28;20046;-60
2023/01/21 01:27:24;;;;;;;26.80;9.35;;;;;;;7.53;47.04;102309.41;5012943;28;20532;-62
2023/01/21 01:29:49;;;;;;;21.83;8.82;;;;;;;7.51;47.52;102308.59;5014418;28;20037;-61
2023/01/21 01:32:14;;;;;;;25.42;8.85;;;;;;;7.49;47.55;102310.47;5013956;28;20096;-61
2023/01/21 01:34:40;;;;;;;24.02;9.13;;;;;;;7.46;47.40;102306.16;4996227;28;20410;-61
2023/01/21 01:37:05;;;;;;;18.67;7.75;;;;;;;7.45;48.46;102315.06;5012274;28;20070;-61
2023/01/21 01:39:30;;;;;;;25.90;9.13;;;;;;;7.43;47.72;102311.63;5012484;28;20038;-61
2023/01/21 01:41:56;;;;;;;22.98;9.00;;;;;;;7.39;47.61;102310.06;5013150;28;20033;-61
2023/01/21 01:44:52;;;;;;;23.33;9.40;;;;;;;7.43;47.38;102321.41;5012502;28;20034;-61
2023/01/21 01:47:19;;;;;;;29.80;10.48;;;;;;;7.41;48.07;102323.31;5013686;28;20046;-60
2023/01/21 01:49:45;;;;;;;23.83;9.75;;;;;;;7.41;47.60;102334.84;5012766;28;20513;-61
2023/01/21 01:52:11;;;;;;;27.52;10.57;;;;;;;7.40;47.09;102338.44;5011440;28;20069;-61
2023/01/21 01:54:49;;;;;;;20.70;9.88;;;;;;;7.40;48.01;102343.75;5013480;28;20061;-61
2023/01/21 01:57:17;;;;;;;22.40;9.75;;;;;;;7.39;47.35;102342.06;5012671;28;20034;-61
2023/01/21 01:59:44;;;;;;;22.42;8.85;;;;;;;7.35;47.26;102339.59;5012170;28;20060;-61
2023/01/21 02:02:12;;;;;;;28.40;9.90;;;;;;;7.37;47.04;102340.41;5012575;28;20048;-60
2023/01/21 02:04:44;;;;;;;22.15;9.23;;;;;;;7.38;48.29;102355.44;4996043;28;20096;-61
2023/01/21 02:07:10;;;;;;;29.10;9.52;;;;;;;7.37;46.95;102364.38;5012067;28;20038;-61
2023/01/21 02:09:36;;;;;;;25.05;10.38;;;;;;;7.35;47.59;102358.22;5012053;28;20037;-61
2023/01/21 02:12:02;;;;;;;21.88;10.40;;;;;;;7.34;47.44;102368.03;5012529;28;20475;-61
2023/01/21 02:14:29;;;;;;;22.42;10.25;;;;;;;7.33;47.87;102370.78;5012111;28;20049;-61
2023/01/21 02:17:16;;;;;;;24.98;11.20;;;;;;;7.31;47.28;102378.84;5012021;28;20038;-61
2023/01/21 02:20:00;;;;;;;17.98;8.02;;;;;;;7.29;47.88;102387.81;5013196;28;20498;-61
2023/01/21 02:22:31;;;;;;;23.30;10.00;;;;;;;7.27;48.01;102387.91;5013075;28;20037;-62
2023/01/21 02:25:00;;;;;;;22.48;9.55;;;;;;;7.26;48.38;102399.50;5012137;28;20049;-61
2023/01/21 02:27:49;;;;;;;30.92;10.43;;;;;;;7.24;47.82;102393.38;5013097;28;20471;-61
2023/01/21 02:30:45;;;;;;;23.60;9.25;;;;;;;7.21;48.29;102400.63;5013834;28;20045;-61
2023/01/21 02:33:23;;;;;;;23.90;9.38;;;;;;;7.16;47.82;102400.84;5018308;28;20038;-60
2023/01/21 02:36:09;;;;;;;18.00;8.35;;;;;;;7.14;48.33;102400.06;5011835;28;20046;-61
2023/01/21 02:38:44;;;;;;;23.73;9.75;;;;;;;7.13;47.81;102403.66;5010823;28;20038;-61
2023/01/21 02:42:07;;;;;;;29.23;10.40;;;;;;;7.13;48.20;102400.13;5012182;28;20034;-61
2023/01/21 02:44:39;;;;;;;23.63;9.68;;;;;;;7.10;48.03;102398.47;5010713;28;20506;-61
2023/01/21 02:47:16;;;;;;;24.30;10.03;;;;;;;7.09;47.89;102395.88;4994780;28;20034;-61
2023/01/21 02:49:46;;;;;;;20.70;8.02;;;;;;;7.09;47.29;102412.69;5014421;28;20041;-61
2023/01/21 02:52:19;;;;;;;25.27;9.65;;;;;;;7.05;46.67;102411.13;4998387;28;20394;-61
2023/01/21 02:54:48;;;;;;;32.60;9.98;;;;;;;7.07;48.10;102419.91;4981770;28;20042;-61
2023/01/21 02:57:18;;;;;;;18.60;8.43;;;;;;;7.03;47.30;102413.84;4998736;28;20076;-61
2023/01/21 02:59:46;;;;;;;29.90;10.35;;;;;;;7.03;47.15;102424.50;5014621;28;20514;-61
2023/01/21 03:02:16;;;;;;;24.20;9.82;;;;;;;7.04;46.77;102436.03;5014554;28;20045;-60
2023/01/21 03:04:44;;;;;;;26.92;9.32;;;;;;;7.02;47.27;102428.13;4996865;28;20498;-61
2023/01/21 03:07:28;;;;;;;19.17;8.45;;;;;;;7.02;47.74;102432.56;5014362;28;20137;-60
2023/01/21 03:10:00;;;;;;;29.27;10.23;;;;;;;7.00;46.88;102439.78;5014402;28;20037;-60
2023/01/21 03:12:47;;;;;;;20.73;8.88;;;;;;;6.99;46.84;102443.34;4998065;28;20079;-61
2023/01/21 03:18:17;;;;;;;20.70;8.15;;;;;;;6.96;47.29;102448.81;5015390;28;20052;-60
2023/01/21 03:20:46;;;;;;;32.38;11.05;;;;;;;6.92;47.43;102441.91;5014808;28;20180;-60
2023/01/21 03:23:16;;;;;;;18.05;8.48;;;;;;;6.94;48.01;102456.88;5016367;28;20414;-60
2023/01/21 03:25:42;;;;;;;26.25;10.05;;;;;;;6.93;47.86;102454.28;5016403;28;20092;-61
2023/01/21 03:28:10;;;;;;;24.25;10.18;;;;;;;6.92;47.30;102457.88;4998636;28;20033;-61
2023/01/21 03:30:42;;;;;;;25.38;9.35;;;;;;;6.71;46.62;102432.16;5015321;28;20032;-60
2023/01/21 03:33:09;;;;;;;19.48;9.10;;;;;;;6.91;46.54;102457.03;5016406;28;20406;-61
2023/01/21 03:35:39;;;;;;;22.30;9.65;;;;;;;6.91;47.32;102456.16;5014746;28;20038;-61
2023/01/21 03:38:49;;;;;;;30.08;9.73;;;;;;;6.89;47.29;102455.34;5014722;28;20494;-61
2023/01/21 03:41:19;;;;;;;23.73;9.02;;;;;;;6.84;47.29;102454.69;4997576;28;20061;-61
2023/01/21 03:43:45;;;;;;;21.67;8.73;;;;;;;6.85;46.80;102456.41;4997602;28;20123;-60
2023/01/21 03:46:25;;;;;;;27.75;10.75;;;;;;;6.85;47.99;102461.72;4997504;28;20078;-61
2023/01/21 03:49:04;;;;;;;26.42;9.70;;;;;;;6.83;47.59;102459.16;5013752;28;20609;-62
2023/01/21 03:51:38;;;;;;;21.58;9.15;;;;;;;6.83;48.08;102468.94;4997501;28;20095;-61
2023/01/21 03:54:04;;;;;;;27.83;10.32;;;;;;;6.82;46.63;102467.19;4997560;28;20544;-61
2023/01/21 03:56:31;;;;;;;26.95;10.15;;;;;;;6.80;47.97;102475.25;4997207;28;20133;-61
2023/01/21 03:58:57;;;;;;;20.92;9.23;;;;;;;6.81;47.03;102474.28;5013133;28;20041;-61
2023/01/21 04:01:42;;;;;;;24.95;10.75;;;;;;;6.80;47.10;102475.25;4997380;28;20034;-60
2023/01/21 04:04:08;;;;;;;26.27;10.35;;;;;;;6.79;47.10;102473.50;4996998;28;20060;-61
2023/01/21 04:06:35;;;;;;;25.83;10.80;;;;;;;6.79;47.40;102472.63;5013477;28;20030;-61
2023/01/21 04:09:02;;;;;;;29.17;10.30;;;;;;;6.74;47.55;102463.97;5013972;28;20030;-61
2023/01/21 04:11:27;;;;;;;28.10;9.93;;;;;;;6.77;48.21;102474.50;4997170;28;20049;-60
2023/01/21 04:13:53;;;;;;;23.48;11.98;;;;;;;6.74;47.82;102474.63;5013380;28;20038;-61
2023/01/21 04:16:18;;;;;;;24.98;10.15;;;;;;;6.75;46.71;102476.38;5015181;28;20049;-61
2023/01/21 04:18:43;;;;;;;25.27;10.57;;;;;;;6.70;47.38;102463.22;5015298;28;20474;-61
2023/01/21 04:21:09;;;;;;;22.77;10.02;;;;;;;6.69;47.26;102466.84;5014055;28;20054;-60
2023/01/21 04:23:35;;;;;;;27.10;10.88;;;;;;;6.75;47.67;102484.38;5015211;28;20129;-61
2023/01/21 04:26:00;;;;;;;24.00;9.55;;;;;;;6.74;47.25;102485.28;5015741;28;20034;-61
2023/01/21 04:28:26;;;;;;;25.48;10.13;;;;;;;6.73;47.70;102488.88;5018471;28;20494;-61
2023/01/21 04:30:51;;;;;;;29.75;9.23;;;;;;;6.74;46.91;102490.59;5017356;28;20076;-61
2023/01/21 04:33:17;;;;;;;25.55;9.48;;;;;;;6.73;48.39;102491.53;5015742;28;20025;-61
2023/01/21 04:35:42;;;;;;;34.30;10.55;;;;;;;6.71;47.99;102501.38;5014866;28;20187;-61
2023/01/21 04:38:08;;;;;;;25.10;10.10;;;;;;;6.71;46.78;102501.38;5013658;28;20042;-61
2023/01/21 04:40:33;;;;;;;28.95;11.13;;;;;;;6.71;46.94;102493.41;5013850;28;20037;-62
2023/01/21 04:42:58;;;;;;;31.40;11.95;;;;;;;6.72;47.51;102503.13;5015068;28;20040;-61
2023/01/21 04:45:24;;;;;;;24.30;10.05;;;;;;;6.73;46.97;102499.50;5012380;28;20379;-61
2023/01/21 04:47:49;;;;;;;25.08;9.57;;;;;;;6.70;47.20;102494.34;5015300;28;20116;-61
2023/01/21 04:50:15;;;;;;;31.60;10.63;;;;;;;6.72;47.07;102509.31;5014756;28;20418;-60
2023/01/21 04:52:41;;;;;;;21.77;10.13;;;;;;;6.67;47.81;102489.97;5014919;28;20046;-61
2023/01/21 04:55:08;;;;;;;28.45;10.07;;;;;;;6.71;48.25;102501.38;5013200;28;20133;-60
2023/01/21 04:57:33;;;;;;;21.60;9.65;;;;;;;6.70;47.84;102489.84;5013393;28;20030;-61
2023/01/21 04:59:59;;;;;;;32.83;11.45;;;;;;;6.68;47.62;102512.16;5015125;28;20544;-61
2023/01/21 05:02:24;;;;;;;26.25;9.80;;;;;;;6.66;46.70;102508.69;5013424;28;20128;-61
2023/01/21 05:04:50;;;;;;;24.95;10.02;;;;;;;6.62;47.21;102507.94;5014417;28;20107;-61
2023/01/21 05:07:15;;;;;;;27.77;11.57;;;;;;;6.63;46.72;102515.03;5013264;28;20499;-61
2023/01/21 05:09:42;;;;;;;27.98;11.40;;;;;;;6.62;47.96;102513.28;5014501;28;20117;-61
2023/01/21 05:12:08;;;;;;;22.83;10.43;;;;;;;6.62;47.33;102515.94;5012757;28;20084;-60
2023/01/21 05:14:34;;;;;;;32.72;12.88;;;;;;;6.62;47.18;102517.72;5012993;28;20034;-61
2023/01/21 05:16:59;;;;;;;24.95;10.73;;;;;;;6.59;47.87;102524.03;5011824;28;20418;-60
2023/01/21 05:19:25;;;;;;;31.30;11.50;;;;;;;6.63;47.15;102523.00;5012866;28;20034;-61
2023/01/21 05:21:50;;;;;;;36.58;12.30;;;;;;;6.62;48.11;102531.03;4996354;28;20061;-61
2023/01/21 05:24:15;;;;;;;27.92;10.98;;;;;;;6.62;48.08;102533.69;5013123;28;20037;-61
2023/01/21 05:26:42;;;;;;;21.48;10.10;;;;;;;6.60;46.98;102541.75;4996483;28;20490;-61
2023/01/21 05:29:07;;;;;;;29.45;11.45;;;;;;;6.62;46.44;102545.22;5012834;28;20038;-62
2023/01/21 05:31:32;;;;;;;32.50;10.75;;;;;;;6.62;47.72;102544.34;5012681;28;20034;-61
2023/01/21 05:33:58;;;;;;;30.25;11.45;;;;;;;6.62;46.61;102549.66;5012651;28;20078;-61
2023/01/21 05:36:23;;;;;;;29.38;10.35;;;;;;;6.61;46.61;102553.28;5013912;28;20033;-61
2023/01/21 05:38:49;;;;;;;25.02;11.15;;;;;;;6.60;47.34;102555.06;5014517;28;20068;-61
2023/01/21 05:41:14;;;;;;;32.55;11.13;;;;;;;6.59;46.52;102560.47;5013901;28;20037;-61
2023/01/21 05:43:39;;;;;;;31.20;12.55;;;;;;;6.57;46.57;102563.19;5012473;28;20409;-61
2023/01/21 05:46:05;;;;;;;26.70;10.63;;;;;;;6.55;47.44;102561.50;5012593;28;20080;-61
2023/01/21 05:48:30;;;;;;;31.25;12.18;;;;;;;6.56;47.75;102566.75;5013635;28;20038;-60
2023/01/21 05:50:56;;;;;;;26.58;11.93;;;;;;;6.57;47.59;102567.63;5014169;28;20486;-60
2023/01/21 05:53:22;;;;;;;33.30;11.05;;;;;;;6.55;47.41;102574.81;5012407;28;20498;-60
2023/01/21 05:55:54;;;;;;;29.17;10.93;;;;;;;6.55;47.74;102572.16;5012295;28;20082;-61
2023/01/21 05:58:20;;;;;;;25.83;11.63;;;;;;;6.53;46.91;102576.69;5013685;28;20034;-61
2023/01/21 06:00:47;;;;;;;31.15;12.07;;;;;;;6.51;47.07;102587.38;5012402;28;20030;-61
2023/01/21 06:03:13;;;;;;;36.22;13.18;;;;;;;6.43;47.42;102576.16;5013772;28;20052;-62
2023/01/21 06:05:40;;;;;;;37.33;13.02;;;;;;;6.45;46.87;102591.13;5013387;28;20056;-60
2023/01/21 06:08:06;;;;;;;29.60;12.02;;;;;;;6.48;47.95;102602.63;5012324;28;20038;-61
2023/01/21 06:10:31;;;;;;;34.58;12.82;;;;;;;6.45;46.14;102607.09;5013679;28;20096;-61
2023/01/21 06:12:56;;;;;;;29.30;12.55;;;;;;;6.43;47.37;102611.63;5012123;28;20042;-60
2023/01/21 06:15:24;;;;;;;33.10;12.52;;;;;;;6.45;46.32;102617.75;5012616;28;20037;-61
2023/01/21 06:17:50;;;;;;;32.63;12.27;;;;;;;6.45;46.82;102627.53;5012201;28;20042;-60
2023/01/21 06:20:15;;;;;;;35.53;12.98;;;;;;;6.43;47.94;102624.94;5013269;28;20041;-61
2023/01/21 06:22:41;;;;;;;31.58;12.57;;;;;;;6.42;47.14;102636.50;5013338;28;20030;-61
2023/01/21 06:25:06;;;;;;;31.77;11.80;;;;;;;6.41;46.59;102640.09;5012417;28;20042;-61
2023/01/21 06:27:33;;;;;;;28.42;11.93;;;;;;;6.41;46.82;102639.22;5016868;28;20033;-62
2023/01/21 06:29:58;;;;;;;26.52;12.23;;;;;;;6.39;46.79;102643.75;5014052;28;20134;-60
2023/01/21 06:32:23;;;;;;;25.08;12.07;;;;;;;6.38;46.15;102647.34;5013165;28;20084;-60
2023/01/21 06:34:49;;;;;;;43.08;10.20;;;;;;;6.36;46.84;102655.38;5012318;28;20038;-60
2023/01/21 06:37:14;;;;;;;25.40;11.55;;;;;;;6.34;46.17;102646.56;5013164;28;20041;-61
2023/01/21 06:39:40;;;;;;;31.13;11.90;;;;;;;6.33;47.61;102649.31;5013009;28;20038;-61
2023/01/21 06:42:06;;;;;;;32.25;10.85;;;;;;;6.32;47.46;102659.06;5012412;28;20041;-61
2023/01/21 06:44:31;;;;;;;33.08;12.10;;;;;;;6.30;47.59;102655.63;5011864;28;20084;-61
2023/01/21 06:46:56;;;;;;;25.98;11.30;;;;;;;6.30;46.11;102660.94;5013160;28;20049;-60
2023/01/21 06:49:22;;;;;;;33.17;12.00;;;;;;;6.28;47.68;102660.09;5011899;28;20045;-60
2023/01/21 06:51:49;;;;;;;36.92;12.77;;;;;;;6.26;46.63;102675.25;5011960;28;20041;-61
2023/01/21 06:54:14;;;;;;;34.35;12.93;;;;;;;6.24;46.22;102665.59;5013369;28;20041;-60
2023/01/21 06:56:42;;;;;;;29.05;11.52;;;;;;;6.22;47.07;102673.66;5012064;28;20498;-60
2023/01/21 06:59:08;;;;;;;32.75;12.10;;;;;;;6.20;47.13;102675.47;5011974;28;20041;-61
2023/01/21 07:01:33;;;;;;;30.92;12.32;;;;;;;6.18;45.87;102681.78;5013187;28;20049;-61
2023/01/21 07:04:00;;;;;;;34.60;11.18;;;;;;;6.16;46.11;102687.19;5010843;28;20054;-61
2023/01/21 07:06:25;;;;;;;31.67;11.77;;;;;;;6.15;46.10;102700.50;5010726;28;20049;-62
2023/01/21 07:08:50;;;;;;;31.20;12.07;;;;;;;6.12;46.60;102693.50;5013523;28;20475;-61
2023/01/21 07:11:16;;;;;;;33.30;11.30;;;;;;;6.09;47.06;102704.25;5012798;28;20087;-61
2023/01/21 07:13:41;;;;;;;27.77;12.88;;;;;;;6.04;46.80;102700.91;5013233;28;20038;-62
2023/01/21 07:16:08;;;;;;;30.30;9.90;;;;;;;6.03;47.19;102714.28;5012949;28;20495;-61
2023/01/21 07:18:33;;;;;;;29.50;11.80;;;;;;;5.97;46.61;102715.34;5012809;28;20030;-62
2023/01/21 07:20:59;;;;;;;26.35;9.52;;;;;;;5.92;46.81;102719.94;5012038;28;20505;-61
2023/01/21 07:23:25;;;;;;;24.92;11.07;;;;;;;5.84;45.60;102721.97;5012043;28;20042;-61
2023/01/21 07:25:50;;;;;;;27.30;10.18;;;;;;;5.77;46.35;102721.31;5011726;28;20412;-61
2023/01/21 07:28:15;;;;;;;26.95;11.70;;;;;;;5.69;45.57;102725.16;5011690;28;20034;-61
2023/01/21 07:30:41;;;;;;;29.35;10.45;;;;;;;5.61;47.22;102724.53;5012891;28;20084;-61
2023/01/21 07:33:07;;;;;;;31.13;12.00;;;;;;;5.54;46.14;102730.97;5013068;28;20470;-61
2023/01/21 07:35:33;;;;;;;32.25;12.07;;;;;;;5.49;47.09;102732.91;5015577;28;20100;-61
2023/01/21 07:37:58;;;;;;;31.77;10.63;;;;;;;5.41;47.13;102724.31;5015012;28;20042;-61
2023/01/21 07:40:24;;;;;;;30.17;11.35;;;;;;;5.40;46.67;102733.19;5016157;28;20128;-61
2023/01/21 07:42:51;;;;;;;31.85;12.10;;;;;;;5.39;45.63;102736.78;5014839;28;20041;-61
2023/01/21 07:45:17;;;;;;;29.63;10.68;;;;;;;5.38;47.05;102737.69;5015010;28;20121;-61
2023/01/21 07:47:42;;;;;;;30.67;11.35;;;;;;;5.39;47.25;102742.13;5014911;28;20125;-61
2023/01/21 07:50:08;;;;;;;30.35;12.07;;;;;;;5.39;46.53;102744.78;5015035;28;20041;-62
2023/01/21 07:52:34;;;;;;;31.40;11.52;;;;;;;5.34;46.02;102736.03;5015919;28;20435;-62
2023/01/21 07:55:00;;;;;;;31.10;12.63;;;;;;;5.39;45.58;102752.75;5014637;28;20076;-61
2023/01/21 07:57:26;;;;;;;30.60;11.85;;;;;;;5.38;45.94;102751.88;5014612;28;20109;-61
2023/01/21 07:59:51;;;;;;;31.58;11.55;;;;;;;5.34;46.51;102750.22;5016295;28;20085;-61
2023/01/21 08:02:17;;;;;;;30.50;12.07;;;;;;;5.38;46.21;102761.63;5016087;28;20498;-62
2023/01/21 08:04:42;;;;;;;28.55;11.77;;;;;;;5.40;45.48;102770.41;5014180;28;20042;-62
2023/01/21 08:07:08;;;;;;;35.40;11.90;;;;;;;5.41;46.79;102773.03;5015568;28;20042;-62
2023/01/21 08:09:37;;;;;;;31.00;10.63;;;;;;;5.45;46.51;102777.31;5015907;28;20045;-62
2023/01/21 08:12:03;;;;;;;26.40;12.05;;;;;;;5.40;46.75;102759.78;5016015;28;20034;-61
2023/01/21 08:14:29;;;;;;;38.20;13.35;;;;;;;5.52;47.26;102784.19;5015329;28;20514;-62
2023/01/21 08:16:54;;;;;;;27.05;11.68;;;;;;;5.56;47.21;102790.25;5015376;28;20084;-61
2023/01/21 08:19:20;;;;;;;29.38;12.48;;;;;;;5.61;47.37;102788.34;5015466;28;20041;-62
2023/01/21 08:21:45;;;;;;;35.53;11.68;;;;;;;5.65;46.03;102782.00;5015221;28;20157;-62
2023/01/21 08:24:11;;;;;;;30.90;11.05;;;;;;;5.68;45.68;102792.53;5016461;28;20509;-62
2023/01/21 08:26:36;;;;;;;43.95;11.73;;;;;;;5.64;46.11;102790.91;5019422;28;20045;-62
2023/01/21 08:29:02;;;;;;;27.38;11.13;;;;;;;5.70;45.54;102806.63;5015499;28;20037;-61
2023/01/21 08:31:27;;;;;;;27.55;10.07;;;;;;;5.70;46.97;102806.63;5015325;28;20513;-61
2023/01/21 08:33:52;;;;;;;32.67;10.75;;;;;;;5.70;46.26;102806.63;5014070;28;20065;-61
2023/01/21 08:36:18;;;;;;;37.63;12.00;;;;;;;5.76;46.79;102814.41;4997802;28;20482;-62
2023/01/21 08:38:43;;;;;;;34.50;13.98;;;;;;;5.82;47.15;102816.88;5014963;28;20561;-62
2023/01/21 08:41:09;;;;;;;32.55;11.75;;;;;;;5.88;46.13;102816.72;5015110;28;20121;-62
2023/01/21 08:43:35;;;;;;;39.92;13.15;;;;;;;5.93;45.99;102822.75;5014944;28;20502;-62
2023/01/21 08:46:01;;;;;;;36.22;14.05;;;;;;;5.99;47.23;102822.53;5013755;28;20033;-62
2023/01/21 08:48:27;;;;;;;33.30;13.13;;;;;;;6.06;45.74;102824.06;5014796;28;20486;-62
2023/01/21 08:50:53;;;;;;;25.55;11.75;;;;;;;6.13;46.14;102830.06;5014011;28;20053;-62
2023/01/21 08:53:18;;;;;;;32.60;13.30;;;;;;;6.20;47.39;102827.13;5014806;28;20088;-61
2023/01/21 08:55:44;;;;;;;42.22;13.55;;;;;;;6.26;47.02;102834.03;5014690;28;20042;-61
2023/01/21 08:58:09;;;;;;;31.92;12.73;;;;;;;6.32;47.06;102834.69;5013368;28;20034;-62
2023/01/21 09:00:35;;;;;;;29.80;11.50;;;;;;;6.40;47.41;102843.28;5014820;28;20375;-62
2023/01/21 09:03:00;;;;;;;39.88;13.63;;;;;;;6.48;46.32;102844.84;5014626;28;20049;-62
2023/01/21 09:05:25;;;;;;;28.95;12.13;;;;;;;6.53;46.56;102838.41;5014398;28;20062;-62
2023/01/21 09:07:51;;;;;;;30.60;12.35;;;;;;;6.60;46.81;102845.25;5014387;28;20041;-62
2023/01/21 09:13:08;;;;;;;34.97;13.13;;;;;;;6.75;45.88;102854.50;5014301;28;20157;-62
2023/01/21 09:15:38;;;;;;;25.90;12.43;;;;;;;6.80;47.43;102848.09;5013307;28;20482;-62
2023/01/21 09:18:03;;;;;;;35.58;13.05;;;;;;;6.88;47.10;102855.78;5013646;28;20030;-62
2023/01/21 09:20:28;;;;;;;33.00;11.93;;;;;;;6.96;46.65;102853.72;5014101;28;20037;-62
2023/01/21 09:22:54;;;;;;;30.95;13.35;;;;;;;6.98;45.99;102857.16;5014229;28;20453;-62
2023/01/21 09:25:19;;;;;;;32.22;14.23;;;;;;;7.10;47.34;102871.84;5013129;28;20042;-62
2023/01/21 09:27:45;;;;;;;32.90;13.65;;;;;;;7.16;47.06;102867.16;5013971;28;20124;-61
2023/01/21 09:30:10;;;;;;;30.73;10.32;;;;;;;7.23;46.31;102873.16;5014566;28;20091;-62
2023/01/21 09:32:36;;;;;;;36.50;12.68;;;;;;;7.29;46.44;102879.09;5014124;28;20056;-62
2023/01/21 09:35:01;;;;;;;34.75;12.18;;;;;;;7.39;46.49;102874.31;5013053;28;20049;-62
2023/01/21 09:37:26;;;;;;;36.53;12.52;;;;;;;7.47;45.95;102878.41;5014314;28;20048;-62
2023/01/21 09:39:52;;;;;;;35.38;12.60;;;;;;;7.48;46.08;102877.47;5013810;28;20037;-62
2023/01/21 09:42:20;;;;;;;40.35;13.13;;;;;;;7.54;46.10;102879.91;5014342;28;20033;-62
2023/01/21 09:44:48;;;;;;;39.15;14.15;;;;;;;7.63;46.58;102890.22;5012542;28;20037;-62
2023/01/21 09:47:23;;;;;;;38.33;13.18;;;;;;;7.69;46.87;102894.44;5013739;28;20049;-62
2023/01/21 09:49:49;;;;;;;40.72;13.63;;;;;;;7.73;46.60;102900.53;5012510;28;20037;-62
2023/01/21 09:52:36;;;;;;;28.83;12.32;;;;;;;7.77;46.05;102908.34;5013811;28;20038;-62
2023/01/21 09:55:03;;;;;;;34.33;13.15;;;;;;;7.76;46.55;102906.59;5013774;28;20041;-62
2023/01/21 09:58:00;;;;;;;36.50;12.75;;;;;;;7.73;47.20;102911.19;5012076;28;20441;-63
2023/01/21 10:00:45;;;;;;;39.42;14.00;;;;;;;7.67;46.66;102914.09;5010340;28;20030;-62
2023/01/21 10:03:36;;;;;;;36.42;12.45;;;;;;;7.64;46.79;102923.09;5013991;28;20045;-63
2023/01/21 10:06:01;;;;;;;35.28;13.10;;;;;;;7.65;47.35;102926.63;5012683;28;20042;-63
2023/01/21 10:08:48;;;;;;;42.90;14.38;;;;;;;7.67;46.68;102920.31;5013497;28;20048;-63
2023/01/21 10:11:20;;;;;;;36.30;13.60;;;;;;;7.69;47.63;102926.44;5013404;28;20033;-62
2023/01/21 10:13:49;;;;;;;38.30;13.95;;;;;;;7.69;47.28;102928.25;5013605;28;20048;-62
2023/01/21 10:16:36;;;;;;;49.15;16.17;;;;;;;7.67;47.63;102930.97;5013577;28;20041;-62
2023/01/21 10:19:03;;;;;;;47.33;15.70;;;;;;;7.66;47.55;102923.03;5013682;28;20047;-63
2023/01/21 10:21:35;;;;;;;54.78;17.08;;;;;;;7.66;46.99;102931.91;5011991;28;20040;-63
2023/01/21 10:24:33;;;;;;;39.38;13.43;;;;;;;7.65;47.07;102939.97;5013611;28;20026;-62
2023/01/21 10:26:59;;;;;;;54.28;16.00;;;;;;;7.63;46.74;102948.88;5012766;28;20034;-62
2023/01/21 10:29:25;;;;;;;49.70;16.92;;;;;;;7.56;47.91;102934.06;5013639;28;20088;-62
2023/01/21 10:31:58;;;;;;;58.65;17.23;;;;;;;7.62;48.16;102952.47;5012604;28;20033;-61
2023/01/21 10:34:24;;;;;;;45.70;18.08;;;;;;;7.65;47.58;102946.16;5012835;28;20029;-62
2023/01/21 10:36:56;;;;;;;45.67;16.33;;;;;;;7.61;47.77;102950.75;5012247;28;20044;-62
2023/01/21 10:39:41;;;;;;;41.78;14.18;;;;;;;7.68;47.69;102955.84;5013167;28;20026;-62
2023/01/21 10:42:30;;;;;;;52.75;16.70;;;;;;;7.68;47.36;102948.69;5013940;28;20064;-62
2023/01/21 10:45:16;;;;;;;46.55;16.55;;;;;;;7.71;47.34;102951.25;4976989;28;20035;-62
2023/01/21 10:47:54;;;;;;;48.65;15.60;;;;;;;7.78;47.27;102946.56;5012345;28;20042;-62
2023/01/21 10:50:24;;;;;;;57.65;17.38;;;;;;;7.76;47.70;102938.59;4995760;28;20030;-62
2023/01/21 10:52:56;;;;;;;44.78;15.95;;;;;;;7.83;47.41;102936.56;5013182;28;20120;-63
2023/01/21 10:56:00;;;;;;;51.15;16.50;;;;;;;7.89;47.89;102941.69;5012207;28;20041;-62
2023/01/21 10:58:47;;;;;;;55.88;17.13;;;;;;;7.91;47.63;102943.34;4997001;28;20034;-62
2023/01/21 11:01:20;;;;;;;55.65;17.55;;;;;;;7.97;47.23;102931.56;5012087;28;20030;-63
2023/01/21 11:03:51;;;;;;;49.17;15.52;;;;;;;8.02;47.09;102935.78;5013139;28;20034;-63
2023/01/21 11:06:18;;;;;;;42.95;16.48;;;;;;;8.04;47.59;102933.94;5012711;28;20025;-63
2023/01/21 11:08:47;;;;;;;50.13;16.95;;;;;;;8.07;47.10;102931.13;5012498;28;20505;-63
2023/01/21 11:11:14;;;;;;;42.35;15.85;;;;;;;8.11;46.72;102929.22;4999447;28;20160;-62
2023/01/21 11:13:40;;;;;;;50.65;16.60;;;;;;;8.14;46.90;102926.44;5015997;28;20095;-61
2023/01/21 11:16:06;;;;;;;46.75;16.23;;;;;;;8.12;47.02;102920.28;5015742;28;20500;-62
2023/01/21 11:18:40;;;;;;;53.75;16.10;;;;;;;8.19;46.95;102932.44;5015684;28;20152;-62
2023/01/21 11:21:23;;;;;;;41.90;15.05;;;;;;;8.19;47.59;102929.78;5016145;28;20026;-62
2023/01/21 11:23:53;;;;;;;48.33;16.10;;;;;;;8.17;46.99;102934.31;5015760;28;20422;-63
2023/01/21 11:26:26;;;;;;;44.72;14.82;;;;;;;8.20;47.59;102934.19;5015804;28;20057;-63
2023/01/21 11:29:10;;;;;;;44.83;15.77;;;;;;;8.23;47.11;102931.41;5017755;28;20033;-63
2023/01/21 11:31:36;;;;;;;43.40;15.40;;;;;;;8.24;48.02;102930.44;5014680;28;20073;-63
2023/01/21 11:34:17;;;;;;;45.83;17.33;;;;;;;8.26;46.87;102925.06;5015879;28;20060;-63